createdAt,value
2019-05-26T00:00:18.005Z,-62
2019-05-26T00:01:14.911Z,-61
2019-05-26T00:02:10.751Z,-61
2019-05-26T00:03:08.144Z,-61
2019-05-26T00:04:07.575Z,-61
2019-05-26T00:05:03.568Z,-61
2019-05-26T00:06:03.047Z,-61
2019-05-26T00:07:03.365Z,-62
2019-05-26T00:08:00.178Z,-61
2019-05-26T00:09:02.735Z,-61
2019-05-26T00:09:58.891Z,-61
2019-05-26T00:10:57.151Z,-60
2019-05-26T00:11:53.991Z,-61
2019-05-26T00:12:51.202Z,-61
2019-05-26T00:13:48.150Z,-61
2019-05-26T00:14:45.559Z,-62
2019-05-26T00:15:42.527Z,-61
2019-05-26T00:16:38.794Z,-61
2019-05-26T00:17:35.258Z,-62
2019-05-26T00:18:33.431Z,-62
2019-05-26T00:19:36.121Z,-62
2019-05-26T00:20:33.050Z,-61
2019-05-26T00:21:28.801Z,-61
2019-05-26T00:22:26.869Z,-61
2019-05-26T00:23:35.425Z,-61
2019-05-26T00:24:35.858Z,-62
2019-05-26T00:25:31.678Z,-62
2019-05-26T00:26:27.508Z,-61
2019-05-26T00:27:23.527Z,-61
2019-05-26T00:28:19.828Z,-61
2019-05-26T00:29:16.116Z,-62
2019-05-26T00:30:02.894Z,-62
2019-05-26T00:31:02.586Z,-61
2019-05-26T00:32:02.983Z,-62
2019-05-26T00:33:01.544Z,-62
2019-05-26T00:33:59.652Z,-62
2019-05-26T00:34:56.801Z,-62
2019-05-26T00:35:53.964Z,-61
2019-05-26T00:36:52.663Z,-62
2019-05-26T00:37:50.381Z,-61
2019-05-26T00:38:48.981Z,-61
2019-05-26T00:39:47.333Z,-62
2019-05-26T00:40:46.647Z,-61
2019-05-26T00:41:43.667Z,-62
2019-05-26T00:42:42.750Z,-61
2019-05-26T00:43:41.225Z,-61
2019-05-26T00:44:37.080Z,-61
2019-05-26T00:45:37.349Z,-62
2019-05-26T00:46:33.124Z,-61
2019-05-26T00:47:29.025Z,-61
2019-05-26T00:48:24.857Z,-62
2019-05-26T00:49:22.606Z,-61
2019-05-26T00:50:24.024Z,-62
2019-05-26T00:51:19.731Z,-61
2019-05-26T00:52:16.982Z,-62
2019-05-26T00:53:19.344Z,-61
2019-05-26T00:54:16.170Z,-62
2019-05-26T00:55:14.007Z,-62
2019-05-26T00:56:10.052Z,-61
2019-05-26T00:57:05.884Z,-61
2019-05-26T00:58:03.849Z,-62
2019-05-26T00:59:05.313Z,-61
2019-05-26T01:00:06.950Z,-61
2019-05-26T01:01:12.045Z,-61
2019-05-26T01:02:11.608Z,-61
2019-05-26T01:03:08.407Z,-61
2019-05-26T01:04:05.482Z,-61
2019-05-26T01:05:01.198Z,-62
2019-05-26T01:05:58.868Z,-61
2019-05-26T01:06:55.157Z,-61
2019-05-26T01:08:06.442Z,-61
2019-05-26T01:08:06.959Z,-61
2019-05-26T01:08:58.439Z,-62
2019-05-26T01:10:03.455Z,-62
2019-05-26T01:11:05.379Z,-61
2019-05-26T01:12:02.452Z,-62
2019-05-26T01:12:58.443Z,-62
2019-05-26T01:13:56.521Z,-61
2019-05-26T01:14:52.189Z,-61
2019-05-26T01:15:48.222Z,-61
2019-05-26T01:16:43.941Z,-61
2019-05-26T01:17:41.368Z,-61
2019-05-26T01:18:44.644Z,-61
2019-05-26T01:19:40.385Z,-61
2019-05-26T01:20:38.598Z,-62
2019-05-26T01:21:34.550Z,-62
2019-05-26T01:22:30.412Z,-61
2019-05-26T01:23:31.523Z,-62
2019-05-26T01:24:30.061Z,-61
2019-05-26T01:25:25.999Z,-61
2019-05-26T01:26:22.953Z,-62
2019-05-26T01:27:22.321Z,-61
2019-05-26T01:28:22.432Z,-61
2019-05-26T01:29:20.228Z,-62
2019-05-26T01:30:23.466Z,-62
2019-05-26T01:31:19.738Z,-61
2019-05-26T01:32:15.990Z,-61
2019-05-26T01:33:16.679Z,-62
2019-05-26T01:34:13.263Z,-60
2019-05-26T01:35:11.809Z,-61
2019-05-26T01:36:08.489Z,-61
2019-05-26T01:37:05.487Z,-61
2019-05-26T01:38:02.462Z,-61
2019-05-26T01:38:59.699Z,-61
2019-05-26T01:40:02.362Z,-61
2019-05-26T01:40:59.897Z,-61
2019-05-26T01:41:56.767Z,-62
2019-05-26T01:42:53.371Z,-61
2019-05-26T01:43:49.491Z,-62
2019-05-26T01:44:45.958Z,-61
2019-05-26T01:45:42.994Z,-62
2019-05-26T01:46:38.844Z,-61
2019-05-26T01:47:44.120Z,-62
2019-05-26T01:48:40.490Z,-61
2019-05-26T01:49:43.239Z,-62
2019-05-26T01:50:39.065Z,-61
2019-05-26T01:51:34.900Z,-61
2019-05-26T01:52:32.043Z,-62
2019-05-26T01:53:28.748Z,-61
2019-05-26T01:54:26.115Z,-61
2019-05-26T01:55:24.285Z,-61
2019-05-26T01:56:21.440Z,-61
2019-05-26T01:57:17.721Z,-62
2019-05-26T01:58:14.230Z,-61
2019-05-26T01:59:10.001Z,-62
2019-05-26T02:00:06.593Z,-62
2019-05-26T02:01:02.846Z,-61
2019-05-26T02:01:59.608Z,-61
2019-05-26T02:02:58.995Z,-61
2019-05-26T02:03:57.945Z,-61
2019-05-26T02:04:56.288Z,-61
2019-05-26T02:05:52.300Z,-61
2019-05-26T02:06:51.283Z,-61
2019-05-26T02:07:47.138Z,-62
2019-05-26T02:08:43.579Z,-61
2019-05-26T02:09:41.531Z,-61
2019-05-26T02:10:39.397Z,-61
2019-05-26T02:11:35.460Z,-61
2019-05-26T02:12:33.458Z,-62
2019-05-26T02:13:31.285Z,-61
2019-05-26T02:14:31.649Z,-61
2019-05-26T02:15:28.091Z,-61
2019-05-26T02:16:27.626Z,-61
2019-05-26T02:17:24.558Z,-61
2019-05-26T02:18:21.755Z,-62
2019-05-26T02:19:20.437Z,-61
2019-05-26T02:20:20.849Z,-61
2019-05-26T02:21:20.968Z,-61
2019-05-26T02:22:19.124Z,-62
2019-05-26T02:23:14.330Z,-61
2019-05-26T02:24:11.664Z,-61
2019-05-26T02:25:08.317Z,-62
2019-05-26T02:26:05.130Z,-62
2019-05-26T02:27:01.259Z,-62
2019-05-26T02:27:58.294Z,-62
2019-05-26T02:28:54.420Z,-61
2019-05-26T02:29:50.460Z,-62
2019-05-26T02:30:47.820Z,-62
2019-05-26T02:31:51.336Z,-62
2019-05-26T02:32:48.820Z,-62
2019-05-26T02:33:46.500Z,-61
2019-05-26T02:34:43.520Z,-61
2019-05-26T02:35:45.521Z,-61
2019-05-26T02:36:42.798Z,-62
2019-05-26T02:37:50.594Z,-62
2019-05-26T02:39:01.327Z,-61
2019-05-26T02:39:01.809Z,-61
2019-05-26T02:39:02.587Z,-61
2019-05-26T02:39:44.965Z,-61
2019-05-26T02:40:47.815Z,-61
2019-05-26T02:41:45.283Z,-62
2019-05-26T02:42:43.461Z,-61
2019-05-26T02:43:39.727Z,-62
2019-05-26T02:44:35.828Z,-61
2019-05-26T02:45:33.204Z,-62
2019-05-26T02:46:30.817Z,-61
2019-05-26T02:47:28.562Z,-61
2019-05-26T02:48:25.081Z,-61
2019-05-26T02:49:20.779Z,-61
2019-05-26T02:50:16.515Z,-62
2019-05-26T02:51:15.660Z,-62
2019-05-26T02:52:11.700Z,-61
2019-05-26T02:53:09.333Z,-61
2019-05-26T02:54:06.847Z,-61
2019-05-26T02:55:12.945Z,-61
2019-05-26T02:56:10.169Z,-62
2019-05-26T02:57:09.250Z,-61
2019-05-26T02:58:05.406Z,-61
2019-05-26T02:59:03.834Z,-61
2019-05-26T03:00:00.633Z,-62
2019-05-26T03:00:59.364Z,-61
2019-05-26T03:02:04.807Z,-62
2019-05-26T03:03:08.959Z,-62
2019-05-26T03:04:09.945Z,-62
2019-05-26T03:05:05.504Z,-61
2019-05-26T03:06:01.966Z,-61
2019-05-26T03:07:02.818Z,-62
2019-05-26T03:08:01.967Z,-61
2019-05-26T03:08:58.446Z,-61
2019-05-26T03:09:58.017Z,-62
2019-05-26T03:10:57.144Z,-60
2019-05-26T03:11:59.601Z,-61
2019-05-26T03:12:56.905Z,-61
2019-05-26T03:13:52.494Z,-61
2019-05-26T03:14:53.262Z,-61
2019-05-26T03:15:53.653Z,-61
2019-05-26T03:16:49.585Z,-61
2019-05-26T03:17:46.898Z,-62
2019-05-26T03:18:47.405Z,-61
2019-05-26T03:19:42.981Z,-62
2019-05-26T03:20:43.884Z,-62
2019-05-26T03:21:42.138Z,-61
2019-05-26T03:22:42.832Z,-62
2019-05-26T03:23:41.055Z,-62
2019-05-26T03:24:38.198Z,-61
2019-05-26T03:25:34.069Z,-61
2019-05-26T03:26:30.679Z,-61
2019-05-26T03:27:31.859Z,-60
2019-05-26T03:28:28.238Z,-61
2019-05-26T03:29:24.141Z,-61
2019-05-26T03:30:20.740Z,-61
2019-05-26T03:31:16.835Z,-61
2019-05-26T03:32:13.801Z,-61
2019-05-26T03:33:09.431Z,-60
2019-05-26T03:34:09.442Z,-61
2019-05-26T03:35:10.482Z,-61
2019-05-26T03:36:10.473Z,-61
2019-05-26T03:37:04.537Z,-61
2019-05-26T03:38:10.056Z,-62
2019-05-26T03:39:07.449Z,-61
2019-05-26T03:40:03.036Z,-61
2019-05-26T03:41:00.225Z,-61
2019-05-26T03:41:57.116Z,-62
2019-05-26T03:42:54.217Z,-61
2019-05-26T03:43:51.585Z,-61
2019-05-26T03:44:50.354Z,-61
2019-05-26T03:45:45.999Z,-62
2019-05-26T03:46:54.090Z,-61
2019-05-26T03:47:56.289Z,-62
2019-05-26T03:48:51.867Z,-61
2019-05-26T03:49:48.406Z,-61
2019-05-26T03:50:49.535Z,-61
2019-05-26T03:51:47.661Z,-61
2019-05-26T03:52:46.704Z,-61
2019-05-26T03:53:44.352Z,-61
2019-05-26T03:54:42.455Z,-61
2019-05-26T03:55:40.577Z,-62
2019-05-26T03:56:37.063Z,-61
2019-05-26T03:57:35.223Z,-62
2019-05-26T03:58:30.803Z,-61
2019-05-26T03:59:26.555Z,-61
2019-05-26T04:00:25.747Z,-61
2019-05-26T04:01:24.538Z,-62
2019-05-26T04:02:20.899Z,-61
2019-05-26T04:03:21.696Z,-61
2019-05-26T04:04:19.023Z,-61
2019-05-26T04:05:18.740Z,-61
2019-05-26T04:06:17.130Z,-61
2019-05-26T04:07:14.208Z,-61
2019-05-26T04:08:12.902Z,-61
2019-05-26T04:09:10.629Z,-61
2019-05-26T04:10:09.317Z,-61
2019-05-26T04:11:07.606Z,-61
2019-05-26T04:12:03.404Z,-61
2019-05-26T04:12:59.470Z,-61
2019-05-26T04:14:01.207Z,-61
2019-05-26T04:14:56.647Z,-60
2019-05-26T04:15:54.207Z,-61
2019-05-26T04:16:49.781Z,-61
2019-05-26T04:17:46.628Z,-61
2019-05-26T04:18:43.530Z,-62
2019-05-26T04:19:39.720Z,-61
2019-05-26T04:20:36.011Z,-60
2019-05-26T04:21:31.783Z,-61
2019-05-26T04:22:34.304Z,-61
2019-05-26T04:23:33.617Z,-61
2019-05-26T04:24:31.169Z,-62
2019-05-26T04:25:27.443Z,-60
2019-05-26T04:26:23.793Z,-62
2019-05-26T04:27:19.872Z,-64
2019-05-26T04:28:18.783Z,-61
2019-05-26T04:29:14.613Z,-62
2019-05-26T04:30:10.180Z,-62
2019-05-26T04:31:07.688Z,-62
2019-05-26T04:32:03.789Z,-63
2019-05-26T04:33:01.554Z,-62
2019-05-26T04:33:57.367Z,-61
2019-05-26T04:34:55.502Z,-61
2019-05-26T04:35:53.918Z,-61
2019-05-26T04:36:52.291Z,-60
2019-05-26T04:37:52.455Z,-60
2019-05-26T04:38:48.353Z,-62
2019-05-26T04:39:53.108Z,-62
2019-05-26T04:40:49.240Z,-62
2019-05-26T04:41:50.154Z,-61
2019-05-26T04:42:47.396Z,-61
2019-05-26T04:43:49.049Z,-61
2019-05-26T04:44:47.839Z,-61
2019-05-26T04:45:43.600Z,-61
2019-05-26T04:46:43.090Z,-61
2019-05-26T04:47:38.664Z,-61
2019-05-26T04:48:35.197Z,-61
2019-05-26T04:49:31.276Z,-60
2019-05-26T04:50:27.045Z,-62
2019-05-26T04:51:24.341Z,-64
2019-05-26T04:52:23.808Z,-62
2019-05-26T04:53:23.958Z,-61
2019-05-26T04:54:24.338Z,-63
2019-05-26T04:55:23.131Z,-62
2019-05-26T04:56:23.613Z,-63
2019-05-26T04:57:20.617Z,-60
2019-05-26T04:58:17.364Z,-61
2019-05-26T04:59:13.142Z,-62
2019-05-26T05:00:14.130Z,-60
2019-05-26T05:01:09.643Z,-63
2019-05-26T05:02:05.980Z,-60
2019-05-26T05:03:02.886Z,-62
2019-05-26T05:03:58.793Z,-63
2019-05-26T05:04:56.675Z,-62
2019-05-26T05:05:53.754Z,-60
2019-05-26T05:07:01.119Z,-61
2019-05-26T05:08:01.088Z,-61
2019-05-26T05:08:59.422Z,-61
2019-05-26T05:10:00.450Z,-61
2019-05-26T05:10:57.698Z,-61
2019-05-26T05:11:53.549Z,-61
2019-05-26T05:12:53.749Z,-61
2019-05-26T05:13:50.696Z,-61
2019-05-26T05:14:47.882Z,-61
2019-05-26T05:15:45.793Z,-61
2019-05-26T05:16:44.003Z,-61
2019-05-26T05:17:42.497Z,-61
2019-05-26T05:18:41.606Z,-61
2019-05-26T05:19:39.137Z,-61
2019-05-26T05:20:35.156Z,-61
2019-05-26T05:21:31.939Z,-61
2019-05-26T05:22:28.910Z,-61
2019-05-26T05:23:27.122Z,-61
2019-05-26T05:24:23.712Z,-61
2019-05-26T05:25:19.413Z,-61
2019-05-26T05:26:15.641Z,-60
2019-05-26T05:27:11.836Z,-61
2019-05-26T05:28:07.865Z,-60
2019-05-26T05:29:12.295Z,-61
2019-05-26T05:30:10.021Z,-60
2019-05-26T05:31:12.107Z,-61
2019-05-26T05:32:09.397Z,-61
2019-05-26T05:33:06.068Z,-61
2019-05-26T05:34:04.267Z,-61
2019-05-26T05:35:02.575Z,-61
2019-05-26T05:36:01.411Z,-61
2019-05-26T05:36:57.885Z,-61
2019-05-26T05:37:57.802Z,-60
2019-05-26T05:38:57.992Z,-61
2019-05-26T05:39:56.284Z,-61
2019-05-26T05:40:59.342Z,-61
2019-05-26T05:41:00.455Z,-61
2019-05-26T05:42:02.431Z,-61
2019-05-26T05:42:51.143Z,-63
2019-05-26T05:43:47.347Z,-64
2019-05-26T05:44:43.227Z,-61
2019-05-26T05:45:46.275Z,-63
2019-05-26T05:46:38.231Z,-63
2019-05-26T05:47:37.058Z,-62
2019-05-26T05:48:34.996Z,-63
2019-05-26T05:49:35.673Z,-63
2019-05-26T05:50:32.044Z,-62
2019-05-26T05:51:31.563Z,-63
2019-05-26T05:52:32.501Z,-64
2019-05-26T05:53:32.466Z,-64
2019-05-26T05:54:30.907Z,-63
2019-05-26T05:55:28.513Z,-61
2019-05-26T05:56:24.334Z,-63
2019-05-26T05:57:20.612Z,-64
2019-05-26T05:58:16.403Z,-63
2019-05-26T05:59:12.526Z,-64
2019-05-26T06:00:09.284Z,-64
2019-05-26T06:01:12.423Z,-63
2019-05-26T06:02:14.994Z,-64
2019-05-26T06:03:12.127Z,-64
2019-05-26T06:04:08.673Z,-62
2019-05-26T06:05:05.016Z,-63
2019-05-26T06:06:02.016Z,-58
2019-05-26T06:07:00.218Z,-61
2019-05-26T06:07:56.710Z,-62
2019-05-26T06:08:54.278Z,-62
2019-05-26T06:09:50.291Z,-60
2019-05-26T06:10:47.102Z,-61
2019-05-26T06:11:53.072Z,-62
2019-05-26T06:11:56.878Z,-62
2019-05-26T06:12:44.871Z,-62
2019-05-26T06:13:43.393Z,-62
2019-05-26T06:14:40.379Z,-64
2019-05-26T06:15:42.088Z,-61
2019-05-26T06:16:46.753Z,-58
2019-05-26T06:17:44.689Z,-60
2019-05-26T06:18:41.443Z,-59
2019-05-26T06:19:37.660Z,-59
2019-05-26T06:20:36.231Z,-59
2019-05-26T06:21:33.918Z,-61
2019-05-26T06:22:30.325Z,-60
2019-05-26T06:23:28.701Z,-59
2019-05-26T06:24:30.666Z,-59
2019-05-26T06:25:28.242Z,-63
2019-05-26T06:26:26.815Z,-60
2019-05-26T06:27:26.209Z,-60
2019-05-26T06:28:25.192Z,-60
2019-05-26T06:29:28.854Z,-60
2019-05-26T06:30:25.994Z,-60
2019-05-26T06:31:23.900Z,-60
2019-05-26T06:32:19.981Z,-60
2019-05-26T06:33:18.362Z,-59
2019-05-26T06:34:15.263Z,-60
2019-05-26T06:35:18.449Z,-60
2019-05-26T06:36:17.410Z,-60
2019-05-26T06:37:13.830Z,-60
2019-05-26T06:38:10.087Z,-61
2019-05-26T06:39:07.247Z,-61
2019-05-26T06:40:10.367Z,-60
2019-05-26T06:41:06.399Z,-60
2019-05-26T06:42:13.254Z,-60
2019-05-26T06:43:09.976Z,-60
2019-05-26T06:44:13.418Z,-59
2019-05-26T06:45:09.408Z,-60
2019-05-26T06:46:06.928Z,-60
2019-05-26T06:47:02.437Z,-61
2019-05-26T06:47:59.035Z,-60
2019-05-26T06:48:59.515Z,-61
2019-05-26T06:49:59.629Z,-60
2019-05-26T06:50:59.489Z,-60
2019-05-26T06:51:56.003Z,-60
2019-05-26T06:52:53.176Z,-60
2019-05-26T06:53:49.350Z,-59
2019-05-26T06:54:48.864Z,-60
2019-05-26T06:55:53.157Z,-60
2019-05-26T06:56:50.776Z,-60
2019-05-26T06:57:49.914Z,-60
2019-05-26T06:58:46.254Z,-60
2019-05-26T06:59:42.969Z,-59
2019-05-26T07:00:46.018Z,-60
2019-05-26T07:01:45.363Z,-60
2019-05-26T07:02:42.681Z,-60
2019-05-26T07:03:38.436Z,-60
2019-05-26T07:04:34.532Z,-60
2019-05-26T07:05:31.445Z,-60
2019-05-26T07:06:31.154Z,-60
2019-05-26T07:07:30.273Z,-60
2019-05-26T07:08:26.856Z,-60
2019-05-26T07:09:22.935Z,-60
2019-05-26T07:10:19.763Z,-60
2019-05-26T07:11:16.375Z,-60
2019-05-26T07:12:12.446Z,-60
2019-05-26T07:13:13.446Z,-60
2019-05-26T07:14:15.262Z,-60
2019-05-26T07:15:11.485Z,-61
2019-05-26T07:16:09.526Z,-60
2019-05-26T07:17:05.323Z,-61
2019-05-26T07:18:03.872Z,-60
2019-05-26T07:19:10.882Z,-59
2019-05-26T07:20:11.511Z,-59
2019-05-26T07:21:07.569Z,-61
2019-05-26T07:22:07.453Z,-60
2019-05-26T07:23:19.573Z,-60
2019-05-26T07:24:15.150Z,-61
2019-05-26T07:25:11.748Z,-61
2019-05-26T07:26:09.130Z,-61
2019-05-26T07:27:05.753Z,-60
2019-05-26T07:28:02.605Z,-60
2019-05-26T07:28:58.672Z,-60
2019-05-26T07:29:55.712Z,-60
2019-05-26T07:30:52.971Z,-60
2019-05-26T07:31:49.744Z,-60
2019-05-26T07:32:47.401Z,-61
2019-05-26T07:33:43.346Z,-60
2019-05-26T07:34:39.882Z,-60
2019-05-26T07:35:36.110Z,-60
2019-05-26T07:36:33.511Z,-61
2019-05-26T07:37:37.761Z,-60
2019-05-26T07:38:34.449Z,-60
2019-05-26T07:39:31.122Z,-60
2019-05-26T07:40:41.300Z,-60
2019-05-26T07:41:39.158Z,-60
2019-05-26T07:42:39.251Z,-60
2019-05-26T07:43:34.896Z,-59
2019-05-26T07:44:33.018Z,-60
2019-05-26T07:45:31.871Z,-61
2019-05-26T07:46:34.041Z,-60
2019-05-26T07:47:30.074Z,-61
2019-05-26T07:49:39.657Z,-61
2019-05-26T07:50:37.475Z,-60
2019-05-26T07:51:36.454Z,-60
2019-05-26T07:52:35.749Z,-60
2019-05-26T07:53:35.391Z,-60
2019-05-26T07:54:37.557Z,-60
2019-05-26T07:55:35.495Z,-60
2019-05-26T07:56:33.177Z,-59
2019-05-26T07:57:34.830Z,-60
2019-05-26T07:58:32.837Z,-60
2019-05-26T07:59:35.288Z,-56
2019-05-26T08:00:33.318Z,-59
2019-05-26T08:01:36.181Z,-60
2019-05-26T08:02:30.453Z,-60
2019-05-26T08:03:29.703Z,-60
2019-05-26T08:04:28.656Z,-60
2019-05-26T08:05:26.942Z,-60
2019-05-26T08:06:24.609Z,-58
2019-05-26T08:07:26.897Z,-60
2019-05-26T08:08:24.549Z,-66
2019-05-26T08:09:24.833Z,-60
2019-05-26T08:10:29.035Z,-59
2019-05-26T08:11:27.706Z,-59
2019-05-26T08:12:30.254Z,-59
2019-05-26T08:13:24.904Z,-60
2019-05-26T08:14:26.089Z,-59
2019-05-26T08:15:24.329Z,-59
2019-05-26T08:16:21.802Z,-61
2019-05-26T08:17:20.941Z,-59
2019-05-26T08:18:18.599Z,-62
2019-05-26T08:19:17.331Z,-61
2019-05-26T08:20:15.584Z,-61
2019-05-26T08:21:13.043Z,-60
2019-05-26T08:22:13.405Z,-61
2019-05-26T08:23:11.883Z,-61
2019-05-26T08:24:10.203Z,-64
2019-05-26T08:25:11.826Z,-61
2019-05-26T08:26:09.286Z,-62
2019-05-26T08:27:10.947Z,-61
2019-05-26T08:28:09.909Z,-61
2019-05-26T08:29:08.622Z,-59
2019-05-26T08:30:07.445Z,-58
2019-05-26T08:31:07.247Z,-61
2019-05-26T08:32:06.036Z,-59
2019-05-26T08:33:04.285Z,-56
2019-05-26T08:35:22.706Z,-59
2019-05-26T08:36:20.500Z,-60
2019-05-26T08:37:17.528Z,-58
2019-05-26T08:38:21.844Z,-58
2019-05-26T08:41:06.228Z,-60
2019-05-26T08:42:09.836Z,-58
2019-05-26T08:43:07.701Z,-60
2019-05-26T08:44:07.887Z,-57
2019-05-26T08:46:45.189Z,-58
2019-05-26T08:47:42.513Z,-58
2019-05-26T08:48:40.486Z,-58
2019-05-26T08:49:41.108Z,-59
2019-05-26T08:50:41.127Z,-57
2019-05-26T08:51:40.339Z,-59
2019-05-26T08:52:37.560Z,-57
2019-05-26T08:53:36.125Z,-58
2019-05-26T08:54:32.812Z,-59
2019-05-26T08:55:33.905Z,-58
2019-05-26T08:56:31.772Z,-58
2019-05-26T08:57:29.405Z,-58
2019-05-26T09:08:08.255Z,-56
2019-05-26T09:10:41.347Z,-56
2019-05-26T09:13:05.690Z,-56
2019-05-26T09:16:59.178Z,-56
2019-05-26T09:22:10.855Z,-55
2019-05-26T09:24:36.749Z,-56
2019-05-26T09:28:27.762Z,-56
2019-05-26T09:34:58.464Z,-56
2019-05-26T09:37:21.320Z,-55
2019-05-26T09:41:05.894Z,-57
2019-05-26T09:44:57.996Z,-57
2019-05-26T09:51:19.571Z,-57
2019-05-26T09:52:16.863Z,-56
2019-05-26T09:53:16.280Z,-56
2019-05-26T09:55:51.510Z,-57
2019-05-26T09:59:40.807Z,-56
2019-05-26T10:03:32.034Z,-58
2019-05-26T10:05:55.556Z,-56
2019-05-26T10:09:38.559Z,-58
2019-05-26T10:12:06.725Z,-54
2019-05-26T10:14:33.538Z,-53
2019-05-26T10:17:02.392Z,-54
2019-05-26T10:22:13.139Z,-54
2019-05-26T10:24:43.360Z,-54
2019-05-26T10:27:16.558Z,-54
2019-05-26T10:30:59.471Z,-55
2019-05-26T10:33:23.054Z,-54
2019-05-26T10:35:52.928Z,-54
2019-05-26T10:39:36.840Z,-55
2019-05-26T10:42:09.756Z,-54
2019-05-26T10:44:39.109Z,-54
2019-05-26T10:47:12.396Z,-54
2019-05-26T10:53:40.815Z,-54
2019-05-26T10:56:07.926Z,-54
2019-05-26T10:58:39.022Z,-54
2019-05-26T11:01:12.567Z,-54
2019-05-26T11:03:36.623Z,-54
2019-05-26T11:05:57.684Z,-56
2019-05-26T11:08:21.803Z,-56
2019-05-26T11:10:52.229Z,-54
2019-05-26T11:14:53.165Z,-54
2019-05-26T11:16:05.975Z,-54
2019-05-26T11:17:04.962Z,-54
2019-05-26T11:18:03.625Z,-54
2019-05-26T11:19:01.029Z,-53
2019-05-26T11:19:58.517Z,-55
2019-05-26T11:20:57.695Z,-54
2019-05-26T11:21:57.713Z,-54
2019-05-26T11:22:55.553Z,-55
2019-05-26T11:23:53.464Z,-54
2019-05-26T11:24:52.912Z,-55
2019-05-26T11:25:52.392Z,-54
2019-05-26T11:26:51.354Z,-53
2019-05-26T11:27:51.254Z,-54
2019-05-26T11:30:24.502Z,-53
2019-05-26T11:34:12.258Z,-52
2019-05-26T11:39:22.060Z,-53
2019-05-26T11:41:54.837Z,-53
2019-05-26T11:41:56.009Z,-53
2019-05-26T11:44:24.473Z,-53
2019-05-26T11:46:51.170Z,-52
2019-05-26T11:49:12.105Z,-53
2019-05-26T11:53:06.098Z,-53
2019-05-26T11:55:44.218Z,-52
2019-05-26T11:58:12.467Z,-52
2019-05-26T12:00:43.912Z,-53
2019-05-26T12:04:25.220Z,-53
2019-05-26T12:12:20.279Z,-53
2019-05-26T12:17:52.766Z,-52
2019-05-26T12:20:27.568Z,-52
2019-05-26T12:29:33.069Z,-52
2019-05-26T12:32:06.687Z,-53
2019-05-26T12:35:53.247Z,-53
2019-05-26T12:41:05.565Z,-53
2019-05-26T12:43:41.961Z,-56
2019-05-26T12:50:26.392Z,-56
2019-05-26T12:55:35.467Z,-58
2019-05-26T12:58:03.968Z,-57
2019-05-26T13:04:40.956Z,-58
2019-05-26T13:07:18.165Z,-62
2019-05-26T13:12:24.208Z,-58
2019-05-26T13:23:04.401Z,-59
2019-05-26T13:26:55.571Z,-56
2019-05-26T13:33:21.623Z,-57
2019-05-26T13:37:29.385Z,-59
2019-05-26T13:42:48.915Z,-58
2019-05-26T13:45:22.877Z,-58
2019-05-26T13:50:33.134Z,-59
2019-05-26T13:52:57.689Z,-57
2019-05-26T13:56:55.947Z,-58
2019-05-26T14:01:50.157Z,-57
2019-05-26T14:08:43.925Z,-56
2019-05-26T14:12:35.556Z,-58
2019-05-26T14:14:58.786Z,-57
2019-05-26T14:18:40.813Z,-57
2019-05-26T14:22:33.849Z,-57
2019-05-26T14:29:19.030Z,-57
2019-05-26T14:34:25.010Z,-57
2019-05-26T14:38:21.006Z,-57
2019-05-26T14:40:41.588Z,-56
2019-05-26T14:47:23.466Z,-56
2019-05-26T14:52:41.851Z,-56
2019-05-26T14:56:27.203Z,-56
2019-05-26T15:06:53.998Z,-56
2019-05-26T15:09:25.260Z,-57
2019-05-26T15:09:25.631Z,-57
2019-05-26T15:14:37.935Z,-57
2019-05-26T15:25:16.871Z,-58
2019-05-26T15:27:40.365Z,-83
2019-05-26T15:29:59.545Z,-58
2019-05-26T15:37:49.113Z,-58
2019-05-26T15:40:17.000Z,-59
2019-05-26T15:44:07.425Z,-56
2019-05-26T15:49:19.334Z,-58
2019-05-26T15:54:22.688Z,-56
2019-05-26T15:59:36.353Z,-59
2019-05-26T16:03:41.964Z,-59
2019-05-26T16:07:35.983Z,-58
2019-05-26T16:09:57.507Z,-58
2019-05-26T16:12:19.715Z,-58
2019-05-26T16:20:39.830Z,-59
2019-05-26T16:23:03.032Z,-59
2019-05-26T16:25:40.077Z,-60
2019-05-26T16:28:03.320Z,-59
2019-05-26T16:35:56.996Z,-58
2019-05-26T16:38:43.636Z,-59
2019-05-26T16:41:06.810Z,-56
2019-05-26T16:43:35.182Z,-56
2019-05-26T16:46:01.015Z,-56
2019-05-26T16:49:45.628Z,-58
2019-05-26T16:53:33.967Z,-57
2019-05-26T16:56:08.737Z,-61
2019-05-26T16:59:53.422Z,-62
2019-05-26T17:02:17.808Z,-62
2019-05-26T17:11:31.937Z,-60
2019-05-26T17:18:05.112Z,-58
2019-05-26T17:21:54.276Z,-62
2019-05-26T17:32:41.322Z,-57
2019-05-26T17:36:59.897Z,-58
2019-05-26T17:39:21.940Z,-58
2019-05-26T17:45:49.927Z,-59
2019-05-26T17:48:17.142Z,-59
2019-05-26T17:50:45.746Z,-60
2019-05-26T17:53:18.445Z,-58
2019-05-26T17:55:48.453Z,-59
2019-05-26T17:58:11.390Z,-59
2019-05-26T18:00:31.981Z,-61
2019-05-26T18:02:54.349Z,-60
2019-05-26T18:06:41.575Z,-60
2019-05-26T18:09:05.391Z,-60
2019-05-26T18:15:40.605Z,-59
2019-05-26T18:19:29.761Z,-60
2019-05-26T18:23:20.479Z,-62
2019-05-26T18:25:48.369Z,-61
2019-05-26T18:28:13.446Z,-59
2019-05-26T18:32:06.713Z,-59
2019-05-26T18:37:23.490Z,-60
2019-05-26T18:41:19.385Z,-59
2019-05-26T18:43:43.957Z,-59
2019-05-26T18:55:47.898Z,-58
2019-05-26T18:58:12.618Z,-59
2019-05-26T19:06:27.915Z,-58
2019-05-26T19:08:55.575Z,-58
2019-05-26T19:11:34.362Z,-60
2019-05-26T19:14:02.228Z,-59
2019-05-26T19:16:26.024Z,-58
2019-05-26T19:18:49.036Z,-61
2019-05-26T19:22:55.257Z,-61
2019-05-26T19:25:20.238Z,-61
2019-05-26T19:27:44.452Z,-59
2019-05-26T19:33:14.569Z,-56
2019-05-26T19:35:39.063Z,-56
2019-05-26T19:42:20.351Z,-56
2019-05-26T19:44:46.795Z,-55
2019-05-26T19:50:01.410Z,-55
2019-05-26T19:55:15.307Z,-59
2019-05-26T19:57:43.137Z,-56
2019-05-26T20:12:55.154Z,-55
2019-05-26T20:31:18.385Z,-59
2019-05-26T20:33:41.734Z,-58
2019-05-26T20:36:15.777Z,-53
2019-05-26T20:38:40.117Z,-53
2019-05-26T20:41:03.487Z,-53
2019-05-26T20:43:27.687Z,-52
2019-05-26T20:49:58.362Z,-56
2019-05-26T20:52:23.412Z,-56
2019-05-26T20:54:26.531Z,-56
2019-05-26T20:58:07.104Z,-56
2019-05-26T21:00:32.584Z,-55
2019-05-26T21:02:58.167Z,-56
2019-05-26T21:06:41.830Z,-56
2019-05-26T21:09:06.363Z,-56
2019-05-26T21:12:49.298Z,-55
2019-05-26T21:16:37.175Z,-55
2019-05-26T21:23:23.994Z,-56
2019-05-26T21:27:12.652Z,-56
2019-05-26T21:29:40.296Z,-55
2019-05-26T21:34:46.120Z,-55
2019-05-26T21:46:51.252Z,-55
2019-05-26T21:58:49.932Z,-56
2019-05-26T22:05:11.506Z,-56
2019-05-26T22:08:52.727Z,-56
2019-05-26T22:11:13.991Z,-56
2019-05-26T22:12:12.874Z,-56
2019-05-26T22:13:11.785Z,-56
2019-05-26T22:14:13.053Z,-56
2019-05-26T22:20:53.769Z,-55
2019-05-26T22:24:39.112Z,-55
2019-05-26T22:27:02.530Z,-56
2019-05-26T22:34:48.449Z,-56
2019-05-26T22:38:32.944Z,-56
2019-05-26T22:44:55.939Z,-56
2019-05-26T22:51:20.181Z,-55
2019-05-26T22:53:41.398Z,-56
2019-05-26T23:00:05.832Z,-56
2019-05-26T23:02:38.682Z,-55
2019-05-26T23:06:24.078Z,-56
2019-05-26T23:08:45.214Z,-56
2019-05-26T23:12:29.795Z,-55
2019-05-26T23:16:13.725Z,-56
2019-05-26T23:20:09.345Z,-56
2019-05-26T23:25:11.644Z,-56
2019-05-26T23:29:11.042Z,-57
2019-05-26T23:31:35.128Z,-57
2019-05-26T23:33:59.999Z,-57
2019-05-26T23:37:52.212Z,-67
2019-05-26T23:43:09.422Z,-53
2019-05-26T23:47:00.888Z,-53
2019-05-26T23:50:45.166Z,-52
2019-05-26T23:54:31.858Z,-53
2019-05-26T23:56:54.493Z,-54
2019-05-26T23:59:18.247Z,-53
